Time;durP1;ratioP1;P1;durP2;ratioP2;P2;SDS_P1;SDS_P2;PMS_P1;PMS_P2;Temp;Humidity;BMP_temperature;BMP_pressure;BME280_temperature;BME280_humidity;BME280_pressure;Samples;Min_cycle;Max_cycle;Signal;HPM_P1;HPM_P2
2021/07/16 00:01:13;;;;;;;6.07;2.25;;;21.60;54.40;;;;;;4145991;28;20215;-52
2021/07/16 00:03:16;;;;;;;2.20;1.73;;;21.90;54.50;;;;;;4149463;28;20135;-47
2021/07/16 00:05:18;;;;;;;2.08;1.50;;;22.30;52.70;;;;;;4148843;28;20103;-48
2021/07/16 00:07:20;;;;;;;2.75;1.85;;;22.70;51.50;;;;;;4148377;28;20636;-52
2021/07/16 00:09:22;;;;;;;1.85;1.48;;;23.10;50.60;;;;;;4146270;28;20021;-51
2021/07/16 00:11:25;;;;;;;1.73;1.30;;;23.50;49.60;;;;;;4150006;28;20287;-49
2021/07/16 00:13:27;;;;;;;2.10;1.40;;;23.80;49.50;;;;;;4149710;28;20032;-51
2021/07/16 00:15:30;;;;;;;2.38;1.50;;;23.90;50.60;;;;;;4146488;28;20033;-55
2021/07/16 00:17:32;;;;;;;1.90;1.30;;;23.80;51.20;;;;;;4146943;28;20028;-51
2021/07/16 00:19:34;;;;;;;1.85;1.23;;;23.60;52.30;;;;;;4146650;28;20190;-48
2021/07/16 00:21:36;;;;;;;1.58;1.08;;;23.40;52.50;;;;;;4147515;28;20429;-53
2021/07/16 00:23:39;;;;;;;1.88;1.20;;;23.20;52.70;;;;;;4147990;28;21140;-47
2021/07/16 00:25:41;;;;;;;1.02;0.93;;;23.10;52.70;;;;;;4148684;28;20854;-50
2021/07/16 00:27:43;;;;;;;1.73;1.15;;;22.90;53.10;;;;;;4148329;28;20655;-48
2021/07/16 00:29:45;;;;;;;1.88;1.30;;;22.90;53.20;;;;;;4149573;28;20037;-45
2021/07/16 00:31:47;;;;;;;2.10;1.27;;;22.80;53.40;;;;;;4150673;28;20712;-48
2021/07/16 00:33:51;;;;;;;1.23;1.10;;;22.70;53.70;;;;;;4147279;28;20032;-52
2021/07/16 00:35:53;;;;;;;1.23;1.00;;;22.60;53.40;;;;;;4147849;28;20036;-52
2021/07/16 00:37:55;;;;;;;2.83;1.20;;;22.50;53.50;;;;;;4142188;28;20029;-52
2021/07/16 00:39:57;;;;;;;2.10;1.50;;;22.40;53.50;;;;;;4140549;28;20108;-53
2021/07/16 00:42:00;;;;;;;2.67;1.40;;;22.40;53.70;;;;;;4145994;28;20021;-52
2021/07/16 00:44:02;;;;;;;3.35;1.25;;;22.30;53.90;;;;;;4148318;28;20174;-47
2021/07/16 00:46:04;;;;;;;1.42;1.23;;;22.20;54.00;;;;;;4146376;28;21075;-49
2021/07/16 00:48:07;;;;;;;2.17;1.05;;;22.10;54.00;;;;;;4147026;28;21133;-51
2021/07/16 00:50:35;;;;;;;1.30;1.10;;;22.10;54.00;;;;;;4150013;28;20087;-46
2021/07/16 00:52:39;;;;;;;1.52;1.00;;;22.00;54.10;;;;;;4150481;28;20040;-49
2021/07/16 00:54:41;;;;;;;2.25;1.23;;;22.00;54.30;;;;;;4149198;28;20033;-51
2021/07/16 00:56:43;;;;;;;1.73;1.17;;;21.90;54.20;;;;;;4148141;28;20033;-47
2021/07/16 00:58:46;;;;;;;3.22;1.35;;;21.90;54.80;;;;;;4149226;28;20427;-46
2021/07/16 01:00:48;;;;;;;2.65;1.35;;;21.90;54.40;;;;;;4146676;28;20593;-44
2021/07/16 01:02:51;;;;;;;2.20;1.05;;;21.90;54.50;;;;;;4149430;28;20504;-48
2021/07/16 01:04:53;;;;;;;3.10;1.30;;;21.80;54.60;;;;;;4145543;28;20088;-47
2021/07/16 01:06:56;;;;;;;1.60;1.20;;;21.80;54.70;;;;;;4150277;28;20612;-45
2021/07/16 01:08:58;;;;;;;2.70;1.23;;;21.80;54.80;;;;;;4148184;28;20083;-45
2021/07/16 01:11:00;;;;;;;2.47;1.20;;;21.80;54.90;;;;;;4149259;28;20036;-48
2021/07/16 01:13:03;;;;;;;1.60;1.15;;;21.70;55.50;;;;;;4147175;28;20021;-46
2021/07/16 01:15:09;;;;;;;1.60;1.00;;;21.70;55.10;;;;;;4149364;28;20046;-45
2021/07/16 01:17:12;;;;;;;1.55;1.00;;;21.70;55.10;;;;;;4150031;28;20021;-48
2021/07/16 01:19:23;;;;;;;1.33;1.20;;;21.70;55.20;;;;;;4146716;28;20040;-52
2021/07/16 01:21:28;;;;;;;2.72;1.05;;;21.60;55.20;;;;;;4149030;28;20037;-46
2021/07/16 01:23:31;;;;;;;1.52;1.00;;;21.60;55.50;;;;;;4145226;28;20121;-52
2021/07/16 01:25:33;;;;;;;1.95;1.30;;;21.60;55.50;;;;;;4150276;28;20334;-46
2021/07/16 01:27:36;;;;;;;1.33;1.05;;;21.60;55.50;;;;;;4147897;28;20371;-46
2021/07/16 01:29:39;;;;;;;1.40;1.10;;;21.50;55.80;;;;;;4149626;28;20154;-48
2021/07/16 01:31:41;;;;;;;3.03;1.30;;;21.50;55.50;;;;;;4147518;28;20068;-50
2021/07/16 01:33:43;;;;;;;1.42;1.00;;;21.50;55.70;;;;;;4150177;28;20033;-48
2021/07/16 01:35:45;;;;;;;3.15;1.02;;;21.40;55.70;;;;;;4147271;28;20085;-45
2021/07/16 01:37:48;;;;;;;2.45;1.30;;;21.40;55.90;;;;;;4150458;28;20043;-48
2021/07/16 01:39:50;;;;;;;1.57;1.13;;;21.40;55.90;;;;;;4148443;28;20060;-48
2021/07/16 01:41:52;;;;;;;1.20;1.02;;;21.40;55.90;;;;;;4145246;28;20029;-52
2021/07/16 01:43:54;;;;;;;2.50;1.17;;;21.40;55.90;;;;;;4140472;28;20029;-45
2021/07/16 01:45:56;;;;;;;1.73;1.10;;;21.30;55.80;;;;;;4141669;28;20168;-51
2021/07/16 01:48:01;;;;;;;1.52;1.02;;;21.30;55.80;;;;;;4144979;28;20494;-46
2021/07/16 01:50:06;;;;;;;3.00;1.60;;;21.30;55.80;;;;;;4140560;28;20156;-47
2021/07/16 01:52:08;;;;;;;2.28;0.90;;;21.30;55.80;;;;;;4147903;28;20246;-48
2021/07/16 01:54:10;;;;;;;1.77;1.27;;;21.20;55.90;;;;;;4149712;28;20124;-45
2021/07/16 01:56:12;;;;;;;1.42;1.00;;;21.20;55.90;;;;;;4150390;28;20075;-49
2021/07/16 01:58:16;;;;;;;1.40;1.15;;;21.20;55.90;;;;;;4149981;28;20059;-46
2021/07/16 02:00:22;;;;;;;;;;;21.20;56.00;;;;;;4151492;28;20025;-45
2021/07/16 02:02:24;;;;;;;1.95;1.17;;;21.10;55.90;;;;;;4147234;28;19947;-45
2021/07/16 02:04:26;;;;;;;2.33;1.08;;;21.10;55.80;;;;;;4151280;28;20032;-45
2021/07/16 02:06:30;;;;;;;2.65;1.35;;;21.10;56.00;;;;;;4149638;28;21069;-47
2021/07/16 02:08:32;;;;;;;1.95;1.13;;;21.10;55.80;;;;;;4145926;28;20793;-51
2021/07/16 02:10:36;;;;;;;2.47;1.10;;;21.10;55.70;;;;;;4144584;28;20054;-46
2021/07/16 02:12:38;;;;;;;0.85;0.85;;;21.00;55.70;;;;;;4146608;28;20048;-46
2021/07/16 02:14:40;;;;;;;3.95;1.00;;;21.00;55.80;;;;;;4148708;28;20394;-49
2021/07/16 02:16:42;;;;;;;0.98;0.90;;;21.00;55.90;;;;;;4147808;28;20603;-46
2021/07/16 02:18:54;;;;;;;4.38;0.95;;;21.00;56.00;;;;;;4150361;28;20036;-47
2021/07/16 02:20:57;;;;;;;1.15;0.80;;;21.00;56.20;;;;;;4149961;28;20083;-45
2021/07/16 02:23:01;;;;;;;3.92;1.10;;;21.00;56.30;;;;;;4148066;28;20035;-46
2021/07/16 02:25:03;;;;;;;2.42;1.27;;;21.00;56.30;;;;;;4151584;28;20033;-48
2021/07/16 02:27:08;;;;;;;1.53;1.10;;;20.90;56.20;;;;;;4151103;28;20040;-49
2021/07/16 02:29:11;;;;;;;2.80;1.30;;;20.90;56.20;;;;;;4152244;28;20189;-47
2021/07/16 02:31:14;;;;;;;1.80;1.10;;;20.90;56.20;;;;;;4152211;28;20021;-47
2021/07/16 02:33:17;;;;;;;1.48;0.80;;;20.80;56.20;;;;;;4151030;28;20021;-45
2021/07/16 02:35:19;;;;;;;2.15;0.90;;;20.80;56.10;;;;;;4151052;28;20330;-48
2021/07/16 02:37:21;;;;;;;1.75;0.95;;;20.80;55.80;;;;;;4154608;28;20777;-50
2021/07/16 02:39:24;;;;;;;1.10;0.90;;;20.70;55.80;;;;;;4151445;28;20033;-49
2021/07/16 02:41:26;;;;;;;2.20;1.00;;;20.70;56.30;;;;;;4152501;28;20084;-44
2021/07/16 02:43:29;;;;;;;2.65;1.33;;;20.60;55.70;;;;;;4152989;28;20304;-47
2021/07/16 02:45:31;;;;;;;0.98;0.82;;;20.60;55.60;;;;;;4150362;28;20491;-48
2021/07/16 02:47:34;;;;;;;3.55;1.33;;;;;;;;;;4152111;28;20032;-47
2021/07/16 02:49:36;;;;;;;1.10;0.93;;;;;;;;;;4152779;28;20079;-47
2021/07/16 02:51:38;;;;;;;1.92;1.20;;;;;;;;;;4151749;28;20037;-52
2021/07/16 02:53:40;;;;;;;2.83;1.08;;;;;;;;;;4149870;28;20431;-44
2021/07/16 02:55:43;;;;;;;2.08;0.93;;;;;;;;;;4152134;28;20489;-45
2021/07/16 02:57:45;;;;;;;1.85;0.80;;;;;;;;;;4150674;28;20425;-44
2021/07/16 02:59:47;;;;;;;1.73;1.02;;;;;;;;;;4152874;28;20543;-45
2021/07/16 03:01:59;;;;;;;2.15;0.90;;;;;;;;;;4152578;28;20041;-44
2021/07/16 03:04:01;;;;;;;0.80;0.80;;;;;;;;;;4153859;28;20071;-48
2021/07/16 03:06:03;;;;;;;1.48;0.90;;;;;;;;;;4151623;28;20048;-47
2021/07/16 03:08:06;;;;;;;1.48;0.80;;;;;;;;;;4149166;28;20036;-48
2021/07/16 03:10:14;;;;;;;1.83;0.93;;;;;;;;;;4151975;28;20506;-47
2021/07/16 03:12:16;;;;;;;1.63;0.95;;;;;;;;;;4150916;28;20115;-44
2021/07/16 03:14:18;;;;;;;1.48;0.75;;;;;;;;;;4151878;28;20063;-44
2021/07/16 03:16:20;;;;;;;0.95;0.95;;;;;;;;;;4150730;28;20600;-44
2021/07/16 03:18:23;;;;;;;1.63;0.80;;;;;;;;;;4151636;28;20057;-46
2021/07/16 03:20:26;;;;;;;1.05;0.65;;;;;;;;;;4151956;28;20040;-47
2021/07/16 03:22:28;;;;;;;0.98;0.70;;;;;;;;;;4151144;28;20128;-47
2021/07/16 03:24:30;;;;;;;0.80;0.55;;;;;;;;;;4149955;28;20681;-50
2021/07/16 03:26:32;;;;;;;1.40;0.80;;;;;;;;;;4147804;28;20904;-45
2021/07/16 03:28:34;;;;;;;1.08;0.75;;;;;;;;;;4152239;28;20051;-48
2021/07/16 03:30:36;;;;;;;0.85;0.80;;;;;;;;;;4151477;28;20562;-51
2021/07/16 03:32:38;;;;;;;1.45;0.90;;;;;;;;;;4149804;28;21756;-47
2021/07/16 03:34:40;;;;;;;1.98;0.90;;;;;;;;;;4150587;28;20300;-50
2021/07/16 03:36:42;;;;;;;1.30;0.80;;;;;;;;;;4151611;28;20327;-48
2021/07/16 03:38:46;;;;;;;1.77;0.77;;;;;;;;;;4152165;28;20688;-47
2021/07/16 03:40:53;;;;;;;1.30;1.00;;;;;;;;;;4152851;28;20857;-47
2021/07/16 03:42:56;;;;;;;1.10;0.90;;;;;;;;;;4151835;28;20581;-43
2021/07/16 03:44:58;;;;;;;1.10;1.00;;;;;;;;;;4151625;28;20390;-47
2021/07/16 03:47:00;;;;;;;2.58;0.85;;;;;;;;;;4151850;28;20029;-46
2021/07/16 03:49:02;;;;;;;1.13;0.70;;;;;;;;;;4153912;28;20032;-48
2021/07/16 03:51:04;;;;;;;1.15;0.70;;;;;;;;;;4151066;28;20087;-44
2021/07/16 03:53:06;;;;;;;1.48;0.70;;;;;;;;;;4152130;28;20159;-46
2021/07/16 03:55:09;;;;;;;1.90;0.98;;;;;;;;;;4151845;28;20522;-47
2021/07/16 03:57:11;;;;;;;2.83;0.80;;;;;;;;;;4151511;28;20182;-45
2021/07/16 03:59:13;;;;;;;1.50;0.60;;;;;;;;;;4152022;28;20462;-47
2021/07/16 04:01:15;;;;;;;4.78;1.13;;;;;;;;;;4151598;28;20111;-47
2021/07/16 04:03:17;;;;;;;2.67;1.25;;;;;;;;;;4151495;28;20402;-48
2021/07/16 04:05:19;;;;;;;1.30;0.77;;;;;;;;;;4151811;28;20390;-45
2021/07/16 04:07:26;;;;;;;2.65;0.80;;;;;;;;;;4153116;28;20040;-45
2021/07/16 04:09:32;;;;;;;2.15;1.20;;;;;;;;;;4148861;28;20295;-47
2021/07/16 04:11:34;;;;;;;1.00;0.80;;;;;;;;;;4157525;28;20166;-49
2021/07/16 04:13:36;;;;;;;1.60;0.75;;;;;;;;;;4157570;28;20039;-49
2021/07/16 04:15:39;;;;;;;1.00;0.73;;;;;;;;;;4159028;28;20029;-47
2021/07/16 04:17:41;;;;;;;0.82;0.75;;;;;;;;;;4158846;28;20590;-46
2021/07/16 04:19:44;;;;;;;8.98;1.30;;;;;;;;;;4155570;28;20059;-47
2021/07/16 04:21:46;;;;;;;1.58;0.90;;;;;;;;;;4151265;28;20174;-47
2021/07/16 04:23:48;;;;;;;0.80;0.80;;;;;;;;;;4147264;28;20037;-48
2021/07/16 04:25:50;;;;;;;1.20;0.80;;;;;;;;;;4146801;28;20407;-50
2021/07/16 04:27:53;;;;;;;0.75;0.75;;;;;;;;;;4150045;28;20550;-44
2021/07/16 04:29:55;;;;;;;1.15;0.90;;;;;;;;;;4150246;28;20029;-49
2021/07/16 04:31:58;;;;;;;1.60;0.68;;;;;;;;;;4148748;28;20136;-44
2021/07/16 04:34:00;;;;;;;2.88;0.93;;;;;;;;;;4151497;28;20037;-45
2021/07/16 04:36:03;;;;;;;1.08;0.77;;;;;;;;;;4148007;28;20351;-47
2021/07/16 04:38:05;;;;;;;1.50;0.85;;;;;;;;;;4147745;28;20409;-44
2021/07/16 04:40:08;;;;;;;4.90;0.80;;;;;;;;;;4150593;28;20040;-48
2021/07/16 04:42:10;;;;;;;4.45;0.80;;;;;;;;;;4151334;28;20050;-47
2021/07/16 04:44:12;;;;;;;4.15;0.75;;;;;;;;;;4147966;28;20086;-46
2021/07/16 04:46:14;;;;;;;3.28;0.90;;;;;;;;;;4148539;28;20537;-45
2021/07/16 04:48:16;;;;;;;4.00;1.00;;;;;;;;;;4151018;28;20052;-48
2021/07/16 04:50:19;;;;;;;4.13;1.13;;;;;;;;;;4149414;28;20086;-51
2021/07/16 04:52:21;;;;;;;6.10;2.30;;;;;;;;;;4148817;28;20528;-46
2021/07/16 04:54:23;;;;;;;2.42;1.20;;;;;;;;;;4145830;28;20072;-46
2021/07/16 04:56:26;;;;;;;4.70;1.63;;;;;;;;;;4150302;28;20541;-47
2021/07/16 04:58:28;;;;;;;3.90;1.30;;;;;;;;;;4147394;28;20380;-43
2021/07/16 05:00:30;;;;;;;2.88;1.35;;;;;;;;;;4150508;28;20341;-46
2021/07/16 05:02:32;;;;;;;4.35;1.13;;;;;;;;;;4148631;28;20175;-48
2021/07/16 05:04:34;;;;;;;6.07;1.52;;;;;;;;;;4144822;28;20131;-45
2021/07/16 05:06:36;;;;;;;3.25;1.13;;;;;;;;;;4145979;28;20441;-47
2021/07/16 05:08:39;;;;;;;2.65;0.98;;;;;;;;;;4143558;28;20033;-43
2021/07/16 05:10:41;;;;;;;2.25;1.20;;;;;;;;;;4139323;28;20025;-45
2021/07/16 05:12:43;;;;;;;4.50;1.20;;;;;;;;;;4143090;28;20036;-47
2021/07/16 05:14:45;;;;;;;3.47;0.88;;;;;;;;;;4144061;28;20061;-44
2021/07/16 05:16:47;;;;;;;5.57;1.08;;;;;;;;;;4141598;28;20101;-44
2021/07/16 05:18:49;;;;;;;1.83;1.00;;;;;;;;;;4143420;28;20392;-44
2021/07/16 05:20:51;;;;;;;2.17;1.05;;;;;;;;;;4140111;28;20403;-48
2021/07/16 05:22:55;;;;;;;3.63;1.00;;;;;;;;;;4141681;28;20040;-47
2021/07/16 05:24:57;;;;;;;1.67;0.88;;;;;;;;;;4144492;28;20834;-46
2021/07/16 05:26:59;;;;;;;3.22;0.98;;;;;;;;;;4143850;28;20025;-46
2021/07/16 05:29:01;;;;;;;2.08;0.73;;;;;;;;;;4145077;28;20403;-50
2021/07/16 05:31:03;;;;;;;3.00;1.13;;;;;;;;;;4144642;28;20017;-47
2021/07/16 05:33:05;;;;;;;4.85;1.38;;;;;;;;;;4143389;28;20021;-45
2021/07/16 05:35:07;;;;;;;2.63;0.90;;;;;;;;;;4143808;28;20033;-44
2021/07/16 05:37:09;;;;;;;0.90;0.60;;;;;;;;;;4143770;28;20588;-44
2021/07/16 05:39:11;;;;;;;3.20;1.00;;;;;;;;;;4140743;28;21051;-48
2021/07/16 05:41:13;;;;;;;2.05;1.02;;;;;;;;;;4144743;28;20040;-46
2021/07/16 05:43:15;;;;;;;2.40;0.80;;;;;;;;;;4143390;28;20567;-45
2021/07/16 05:45:17;;;;;;;3.83;1.02;;;;;;;;;;4142810;28;20060;-46
2021/07/16 05:47:20;;;;;;;4.60;1.00;;;;;;;;;;4142770;28;20201;-44
2021/07/16 05:49:22;;;;;;;4.03;1.00;;;;;;;;;;4138358;28;20025;-44
2021/07/16 05:51:24;;;;;;;4.18;1.30;;;;;;;;;;4142976;28;20383;-42
2021/07/16 05:53:27;;;;;;;3.75;0.80;;;;;;;;;;4140574;28;20033;-43
2021/07/16 05:55:29;;;;;;;3.22;0.90;;;;;;;;;;4142651;28;20032;-44
2021/07/16 05:57:32;;;;;;;2.90;0.95;;;;;;;;;;4140508;28;20594;-42
2021/07/16 05:59:34;;;;;;;2.42;1.00;;;;;;;;;;4144582;28;20029;-42
2021/07/16 06:01:36;;;;;;;6.22;0.90;;;;;;;;;;4140162;28;20077;-42
2021/07/16 06:03:38;;;;;;;2.08;0.88;;;;;;;;;;4145178;28;20025;-43
2021/07/16 06:05:42;;;;;;;3.00;0.80;;;;;;;;;;4139997;28;20498;-41
2021/07/16 06:07:44;;;;;;;2.10;0.80;;;;;;;;;;4143249;28;20537;-46
2021/07/16 06:09:46;;;;;;;2.08;0.88;;;;;;;;;;4140423;28;20736;-44
2021/07/16 06:11:48;;;;;;;1.52;0.95;;;;;;;;;;4142537;28;20466;-42
2021/07/16 06:13:50;;;;;;;2.05;0.90;;;;;;;;;;4142301;28;20215;-44
2021/07/16 06:15:52;;;;;;;0.77;0.55;;;;;;;;;;4142654;28;20510;-44
2021/07/16 06:17:54;;;;;;;3.33;0.95;;;;;;;;;;4143101;28;20308;-42
2021/07/16 06:19:56;;;;;;;1.17;0.90;;;;;;;;;;4142855;28;20083;-42
2021/07/16 06:21:58;;;;;;;1.35;0.80;;;;;;;;;;4143675;28;20084;-42
2021/07/16 06:24:00;;;;;;;1.40;0.70;;;;;;;;;;4143176;28;20398;-42
2021/07/16 06:26:02;;;;;;;1.35;0.82;;;;;;;;;;4138760;28;20052;-43
2021/07/16 06:28:04;;;;;;;2.72;0.90;;;;;;;;;;4142823;28;20457;-42
2021/07/16 06:30:08;;;;;;;2.28;0.90;;;;;;;;;;4142650;28;20029;-44
2021/07/16 06:32:09;;;;;;;;;;;;;;;;;;4142541;28;20249;-44
2021/07/16 06:34:11;;;;;;;2.20;0.70;;;;;;;;;;4142937;28;20133;-40
2021/07/16 06:36:13;;;;;;;1.60;0.70;;;;;;;;;;4141928;28;20571;-47
2021/07/16 06:38:15;;;;;;;3.30;0.88;;;;;;;;;;4139251;28;20037;-43
2021/07/16 06:40:17;;;;;;;2.15;0.75;;;;;;;;;;4142713;28;20441;-42
2021/07/16 06:42:19;;;;;;;1.95;0.70;;;;;;;;;;4139537;28;20449;-48
2021/07/16 06:44:22;;;;;;;2.17;1.02;;;;;;;;;;4141807;28;20024;-44
2021/07/16 06:46:24;;;;;;;1.45;0.93;;;;;;;;;;4140127;28;20033;-44
2021/07/16 06:48:26;;;;;;;1.02;0.60;;;;;;;;;;4142749;28;20052;-41
2021/07/16 06:50:28;;;;;;;2.30;0.98;;;;;;;;;;4139620;28;20622;-41
2021/07/16 06:52:30;;;;;;;1.25;0.80;;;;;;;;;;4143075;28;20025;-41
2021/07/16 06:54:32;;;;;;;1.35;0.70;;;;;;;;;;4137432;28;20044;-42
2021/07/16 06:56:36;;;;;;;2.60;0.70;;;;;;;;;;4143511;28;21250;-42
2021/07/16 06:58:37;;;;;;;1.17;0.80;;;;;;;;;;4143677;28;20043;-43
2021/07/16 07:00:39;;;;;;;1.80;0.88;;;;;;;;;;4144873;28;20021;-42
2021/07/16 07:02:42;;;;;;;1.67;1.08;;;;;;;;;;4142073;28;20118;-44
2021/07/16 07:04:44;;;;;;;1.27;0.77;;;;;;;;;;4141477;28;20065;-41
2021/07/16 07:06:46;;;;;;;0.75;0.65;;;;;;;;;;4142401;28;21053;-42
2021/07/16 07:08:48;;;;;;;2.78;0.80;;;;;;;;;;4143866;28;20311;-42
2021/07/16 18:03:26;;;;;;;3.67;0.93;;;;;;;;;;3889967;27;9446586;-42
2021/07/16 18:05:28;;;;;;;1.70;1.10;;;;;;;;;;4205958;28;20068;-43
2021/07/16 18:07:30;;;;;;;2.40;1.00;;;;;;;;;;4206727;28;20130;-42
2021/07/16 18:09:35;;;;;;;2.05;1.10;;;;;;;;;;4205726;28;20518;-43
2021/07/16 18:11:37;;;;;;;1.20;1.10;;;;;;;;;;4205016;28;20028;-44
2021/07/16 18:13:39;;;;;;;1.27;1.00;;;;;;;;;;4207863;28;20073;-43
2021/07/16 18:15:41;;;;;;;2.88;1.10;;;;;;;;;;4206299;28;20377;-45
2021/07/16 18:17:43;;;;;;;1.40;1.05;;;;;;;;;;4209202;28;20472;-45
2021/07/16 18:19:45;;;;;;;2.05;1.02;;;;;;;;;;4203900;28;20036;-48
2021/07/16 18:21:48;;;;;;;0.85;0.82;;;;;;;;;;4209738;28;20048;-47
2021/07/16 18:23:50;;;;;;;4.00;1.00;;;;;;;;;;4203342;28;20397;-45
2021/07/16 18:25:52;;;;;;;0.88;0.80;;;;;;;;;;4212006;28;20059;-48
2021/07/16 18:27:54;;;;;;;1.25;1.00;;;;;;;;;;4208291;28;20428;-48
2021/07/16 18:29:56;;;;;;;1.40;1.02;;;;;;;;;;4210929;28;20043;-48
2021/07/16 18:31:58;;;;;;;1.13;0.93;;;;;;;;;;4208172;28;20024;-43
2021/07/16 18:34:01;;;;;;;1.65;1.00;;;;;;;;;;4204336;28;20032;-48
2021/07/16 18:36:04;;;;;;;2.10;0.90;;;;;;;;;;4211406;28;20039;-45
2021/07/16 18:38:06;;;;;;;1.95;0.90;;;;;;;;;;4208427;28;20036;-46
2021/07/16 18:40:09;;;;;;;2.45;1.35;;;;;;;;;;4210013;28;20024;-43
2021/07/16 18:42:11;;;;;;;1.08;0.80;;;;;;;;;;4205985;28;20036;-43
2021/07/16 18:44:13;;;;;;;3.65;0.95;;;;;;;;;;4210215;28;20066;-44
2021/07/16 18:46:15;;;;;;;0.88;0.80;;;;;;;;;;4207429;28;20031;-44
2021/07/16 18:48:17;;;;;;;3.10;1.13;;;;;;;;;;4207260;28;20020;-44
2021/07/16 18:50:19;;;;;;;1.08;0.80;;;;;;;;;;4207020;28;20056;-43
2021/07/16 18:52:21;;;;;;;1.55;0.90;;;;;;;;;;4204764;28;20032;-43
2021/07/16 18:54:24;;;;;;;1.05;0.75;;;;;;;;;;4197958;28;20028;-44
2021/07/16 18:56:26;;;;;;;1.33;0.90;;;;;;;;;;4207243;28;20032;-45
2021/07/16 18:58:28;;;;;;;1.35;1.10;;;;;;;;;;4209667;28;20024;-45
2021/07/16 19:00:30;;;;;;;4.13;1.08;;;;;;;;;;4205143;28;20035;-47
2021/07/16 19:02:32;;;;;;;2.08;1.00;;;;;;;;;;4218973;27;20357;-44
2021/07/16 19:04:34;;;;;;;2.17;1.13;;;;;;;;;;4219733;27;20297;-44
2021/07/16 19:06:36;;;;;;;2.67;1.00;;;;;;;;;;4221211;27;20098;-46
2021/07/16 19:08:38;;;;;;;1.75;1.10;;;;;;;;;;4223382;28;20087;-44
2021/07/16 19:10:40;;;;;;;2.38;1.20;;;;;;;;;;4220135;27;20038;-43
2021/07/16 19:12:44;;;;;;;1.27;0.85;;;;;;;;;;4218299;27;20032;-44
2021/07/16 19:14:46;;;;;;;;;;;;;;;;;;4209104;28;20527;-43
2021/07/16 19:16:48;;;;;;;1.20;0.88;;;;;;;;;;4210324;28;19911;-44
2021/07/16 19:18:50;;;;;;;1.42;1.20;;;;;;;;;;4214416;28;20551;-46
2021/07/16 19:20:52;;;;;;;2.35;1.00;;;;;;;;;;4209223;28;20020;-45
2021/07/16 19:22:55;;;;;;;1.60;1.08;;;;;;;;;;4211784;28;20032;-48
2021/07/16 19:24:57;;;;;;;2.50;1.23;;;;;;;;;;4213827;28;20032;-46
2021/07/16 19:26:59;;;;;;;1.58;1.20;;;;;;;;;;4207298;28;20483;-46
2021/07/16 19:29:01;;;;;;;1.63;0.90;;;;;;;;;;4208568;28;20094;-43
2021/07/16 19:31:03;;;;;;;2.42;1.10;;;;;;;;;;4211130;28;20040;-44
2021/07/16 19:33:05;;;;;;;2.22;1.20;;;;;;;;;;4216412;28;20119;-43
2021/07/16 19:35:07;;;;;;;3.15;1.23;;;;;;;;;;4210335;28;20101;-44
2021/07/16 19:37:10;;;;;;;1.57;1.10;;;;;;;;;;4213315;28;20866;-42
2021/07/16 19:39:12;;;;;;;1.90;1.02;;;;;;;;;;4209631;28;20103;-43
2021/07/16 19:41:13;;;;;;;1.45;1.15;;;;;;;;;;4217296;28;20042;-42
2021/07/16 19:43:16;;;;;;;1.23;1.02;;;;;;;;;;4208975;28;20042;-42
2021/07/16 19:45:18;;;;;;;2.28;0.90;;;;;;;;;;4213963;28;20499;-42
2021/07/16 19:47:20;;;;;;;1.60;1.00;;;;;;;;;;4210758;27;20035;-42
2021/07/16 19:49:22;;;;;;;2.92;1.27;;;;;;;;;;4210865;28;20340;-42
2021/07/16 19:51:25;;;;;;;1.67;1.10;;;;;;;;;;4203653;28;20338;-41
2021/07/16 19:53:27;;;;;;;3.08;1.10;;;;;;;;;;4213075;28;20055;-42
2021/07/16 19:55:29;;;;;;;1.63;0.88;;;;;;;;;;4211461;28;20293;-42
2021/07/16 19:57:31;;;;;;;1.77;0.90;;;;;;;;;;4210926;27;20451;-43
2021/07/16 19:59:33;;;;;;;2.08;1.17;;;;;;;;;;4212214;28;20151;-42
2021/07/16 20:01:35;;;;;;;1.35;0.98;;;;;;;;;;4206594;28;20135;-43
2021/07/16 20:03:38;;;;;;;1.48;0.80;;;;;;;;;;4208200;28;20027;-46
2021/07/16 20:05:40;;;;;;;1.27;0.97;;;;;;;;;;4215514;28;20118;-44
2021/07/16 20:07:42;;;;;;;2.10;1.13;;;;;;;;;;4206255;28;21334;-43
2021/07/16 20:09:44;;;;;;;1.95;1.20;;;;;;;;;;4213095;28;20028;-44
2021/07/16 20:11:52;;;;;;;2.08;1.05;;;;;;;;;;4203781;28;20067;-47
2021/07/16 20:13:54;;;;;;;4.38;1.17;;;;;;;;;;4208158;28;20384;-44
2021/07/16 20:15:56;;;;;;;1.52;0.85;;;;;;;;;;4211283;28;20020;-44
2021/07/16 20:17:59;;;;;;;1.77;1.08;;;;;;;;;;4205340;28;20016;-46
2021/07/16 20:20:01;;;;;;;1.70;1.10;;;;;;;;;;4213791;28;20034;-45
2021/07/16 20:22:08;;;;;;;1.52;0.77;;;;;;;;;;4209127;28;20043;-43
2021/07/16 20:24:12;;;;;;;2.20;1.00;;;;;;;;;;4218126;28;20476;-45
2021/07/16 20:26:13;;;;;;;;;;;;;;;;;;4209976;27;20012;-47
2021/07/16 20:28:16;;;;;;;2.60;1.17;;;;;;;;;;4211597;28;20329;-44
2021/07/16 20:30:18;;;;;;;2.97;1.30;;;;;;;;;;4213568;28;20446;-45
2021/07/16 20:32:21;;;;;;;2.05;1.10;;;;;;;;;;4211812;28;20036;-46
2021/07/16 20:34:23;;;;;;;1.55;1.10;;;;;;;;;;4210659;28;20082;-45
2021/07/16 20:36:24;;;;;;;3.03;1.27;;;;;;;;;;4206508;28;20131;-43
2021/07/16 20:38:26;;;;;;;2.20;1.15;;;;;;;;;;4212804;28;20031;-45
2021/07/16 20:40:30;;;;;;;4.35;1.40;;;;;;;;;;4208085;28;20114;-43
2021/07/16 20:42:33;;;;;;;2.45;1.27;;;;;;;;;;4211089;28;20170;-47
2021/07/16 20:44:35;;;;;;;5.40;1.80;;;;;;;;;;4207996;28;20038;-42
2021/07/16 20:46:37;;;;;;;3.38;1.15;;;;;;;;;;4212524;27;20368;-44
2021/07/16 20:48:39;;;;;;;3.85;1.27;;;;;;;;;;4207634;27;20027;-43
2021/07/16 20:50:41;;;;;;;3.58;1.02;;;;;;;;;;4210330;28;20028;-45
2021/07/16 20:52:43;;;;;;;2.45;1.15;;;;;;;;;;4214423;28;20023;-44
2021/07/16 20:54:45;;;;;;;2.90;0.73;;;;;;;;;;4209736;28;20320;-46
2021/07/16 20:56:47;;;;;;;1.80;0.75;;;;;;;;;;4211352;28;20547;-45
2021/07/16 20:58:49;;;;;;;1.25;0.90;;;;;;;;;;4206116;28;20265;-43
2021/07/16 21:00:51;;;;;;;4.07;1.15;;;;;;;;;;4211535;28;20282;-45
2021/07/16 21:02:53;;;;;;;3.45;1.20;;;;;;;;;;4206427;28;20392;-47
2021/07/16 21:04:55;;;;;;;1.42;1.05;;;;;;;;;;4207192;27;21370;-46
2021/07/16 21:06:57;;;;;;;1.65;1.15;;;;;;;;;;4202013;28;20461;-47
2021/07/16 21:09:00;;;;;;;3.15;1.08;;;;;;;;;;4207404;28;20024;-43
2021/07/16 21:11:02;;;;;;;1.23;0.77;;;;;;;;;;4213843;28;20478;-44
2021/07/16 21:13:04;;;;;;;1.02;0.93;;;;;;;;;;4204501;28;20097;-44
2021/07/16 21:15:06;;;;;;;0.93;0.80;;;;;;;;;;4216866;28;20027;-49
2021/07/16 21:17:11;;;;;;;3.15;1.25;;;;;;;;;;4214842;27;20024;-47
2021/07/16 21:19:13;;;;;;;2.15;1.30;;;;;;;;;;4211449;27;20017;-44
2021/07/16 21:21:15;;;;;;;2.60;1.13;;;;;;;;;;4209036;28;20058;-45
2021/07/16 21:23:17;;;;;;;2.05;1.05;;;;;;;;;;4207858;28;20189;-45
2021/07/16 21:25:19;;;;;;;2.05;1.05;;;;;;;;;;4209000;28;20095;-45
2021/07/16 21:27:21;;;;;;;1.15;0.98;;;;;;;;;;4207084;28;20043;-44
2021/07/16 21:29:23;;;;;;;2.20;1.13;;;;;;;;;;4212271;28;20016;-46
2021/07/16 21:31:25;;;;;;;9.60;1.20;;;;;;;;;;4205505;28;20070;-47
2021/07/16 21:33:31;;;;;;;1.27;1.00;;;;;;;;;;4218496;28;20031;-44
2021/07/16 21:35:33;;;;;;;1.00;0.90;;;;;;;;;;4204637;28;20398;-45
2021/07/16 21:37:35;;;;;;;2.45;1.08;;;;;;;;;;4207931;28;20020;-48
2021/07/16 21:39:37;;;;;;;1.70;0.90;;;;;;;;;;4207416;28;20035;-47
2021/07/16 21:41:39;;;;;;;2.05;1.20;;;;;;;;;;4210194;28;20101;-45
2021/07/16 21:43:42;;;;;;;1.33;1.02;;;;;;;;;;4216774;28;20035;-45
2021/07/16 21:45:44;;;;;;;1.60;1.00;;;;;;;;;;4210307;28;20388;-43
2021/07/16 21:47:46;;;;;;;3.58;1.13;;;;;;;;;;4211200;28;20673;-45
2021/07/16 21:49:48;;;;;;;5.07;1.10;;;;;;;;;;4210216;28;20023;-48
2021/07/16 21:51:51;;;;;;;1.60;1.08;;;;;;;;;;4207495;28;20060;-46
2021/07/16 21:53:53;;;;;;;2.90;1.15;;;;;;;;;;4211281;28;20023;-46
2021/07/16 21:56:00;;;;;;;2.75;1.23;;;;;;;;;;4209015;28;20035;-44
2021/07/16 21:58:02;;;;;;;2.55;1.20;;;;;;;;;;4208421;28;20210;-45
2021/07/16 22:00:10;;;;;;;2.83;1.00;;;;;;;;;;4203034;28;20153;-44
2021/07/16 22:02:12;;;;;;;7.05;1.65;;;;;;;;;;4209216;28;20140;-52
2021/07/16 22:04:17;;;;;;;2.42;1.25;;;;;;;;;;4203879;28;20584;-45
2021/07/16 22:06:19;;;;;;;2.28;1.30;;;;;;;;;;4214178;28;20070;-45
2021/07/16 22:08:21;;;;;;;2.10;0.88;;;;;;;;;;4210107;28;20125;-46
2021/07/16 22:10:23;;;;;;;2.88;1.17;;;;;;;;;;4214621;28;20059;-45
2021/07/16 22:12:25;;;;;;;2.00;1.25;;;;;;;;;;4210042;28;20536;-46
2021/07/16 22:14:27;;;;;;;2.38;1.10;;;;;;;;;;4209550;28;20039;-47
2021/07/16 22:16:29;;;;;;;3.70;1.00;;;;;;;;;;4212384;28;20651;-49
2021/07/16 22:18:31;;;;;;;2.45;0.90;;;;;;;;;;4212701;28;20054;-49
2021/07/16 22:20:34;;;;;;;2.13;1.23;;;;;;;;;;4213325;28;20030;-48
2021/07/16 22:22:36;;;;;;;3.10;1.20;;;;;;;;;;4199884;28;20040;-49
2021/07/16 22:24:38;;;;;;;1.38;1.02;;;;;;;;;;4208854;28;20027;-45
2021/07/16 22:26:40;;;;;;;2.25;1.20;;;;;;;;;;4202784;28;20023;-48
2021/07/16 22:28:43;;;;;;;4.07;0.88;;;;;;;;;;4199426;28;20023;-45
2021/07/16 22:30:45;;;;;;;1.23;1.13;;;;;;;;;;4203023;28;20088;-45
2021/07/16 22:32:47;;;;;;;2.40;0.90;;;;;;;;;;4204426;28;20474;-47
2021/07/16 22:34:49;;;;;;;1.85;1.23;;;;;;;;;;4206021;28;20027;-50
2021/07/16 22:36:51;;;;;;;3.70;1.23;;;;;;;;;;4202875;28;20035;-48
2021/07/16 22:38:53;;;;;;;1.23;0.98;;;;;;;;;;4207971;28;20136;-47
2021/07/16 22:40:55;;;;;;;1.70;1.00;;;;;;;;;;4206478;28;20418;-46
2021/07/16 22:42:57;;;;;;;1.15;0.98;;;;;;;;;;4209003;28;20516;-47